Lake Worth, FL (33460)

4:06 AM EDT on August 25, 2016 (GMT -0400)
Lake Clarke Shores - Caribbean Rd. East | | Change Station

Elev 16 ft 26.63 °N, 80.07 °W | Updated 0 second ago

Mostly Cloudy
Mostly Cloudy
83.7 °F
Feels Like 97 °F
N
8.1
Wind Variable Wind from East
Gusts 8.1 mph

Today
High -- | Low -- °F
--% Chance of Precip.
Yesterday
High -- | Low -- °F
Precip. -- in
Pressure 29.98 in
Visibility 10.0 miles
Clouds Few 2000 ft
Scattered Clouds 7000 ft
Mostly Cloudy 25000 ft
Heat Index 97 °F
Dew Point 80 °F
Humidity 89%
Rainfall 0.00 in
Snow Depth Not available.
6:57 AM 7:46 PM
Waning Gibbous, 48% visible
METAR KPBI 250753Z 07013KT 10SM FEW020 SCT070 BKN250 29/24 A2998 RMK AO2 SLP151 OCNL LTGIC DSNT SE AND SW CB DSNT SE SW AND NW T02890244
Pressure 29.98 in
Visibility 10.0 miles
Clouds Few 2000 ft
Scattered Clouds 7000 ft
Mostly Cloudy 25000 ft
Heat Index 97 °F
Dew Point 80 °F
Humidity 89%
Rainfall 0.00 in
Snow Depth Not available.
6:57 AM 7:46 PM
Waning Gibbous, 48% visible
METAR KPBI 250753Z 07013KT 10SM FEW020 SCT070 BKN250 29/24 A2998 RMK AO2 SLP151 OCNL LTGIC DSNT SE AND SW CB DSNT SE SW AND NW T02890244

10-Day Weather Forecast

Almanac

Astronomy

Aug. 25, 2016 Rise Set
Actual Time
Civil Twilight
Nautical Twilight
Astronomical Twilight
Moon
Length of Visible Light
Length of Day
Tomorrow will be .
, % of the Moon is Illuminated

Today's Extremes

State Highs State Lows

Community

WunderPhotos

Upload Photos

1,934,814 photos uploaded!

WunderBlog® & News

Nearby

Air Quality

  Air Quality AQ Index Pollutant
Not available.

Snow Depth

Station Depth Elevation

Earthquake Activity

City Distance Mag. Time & Date
Minimum magnitude displayed is 2.5.

Coastal Water Temperatures

Place Temperature

Stations

Nearby Weather Stations

Station Location Temp. Windchill Dew Point Humidity Wind Precip. Elev Updated Type
                   

Watches & Warnings

There are currently no watches in effect.